sensor_id;sensor_type;location;lat;lon;timestamp;temperature;humidity
54260;DHT22;40172;53.022;7.012;2023-06-01T00:01:46;11.20;99.90
54260;DHT22;40172;53.022;7.012;2023-06-01T00:04:12;11.20;99.90
54260;DHT22;40172;53.022;7.012;2023-06-01T00:06:39;11.20;99.90
54260;DHT22;40172;53.022;7.012;2023-06-01T00:09:05;11.20;99.90
54260;DHT22;40172;53.022;7.012;2023-06-01T00:11:30;11.20;99.90
54260;DHT22;40172;53.022;7.012;2023-06-01T00:13:56;11.10;99.90
54260;DHT22;40172;53.022;7.012;2023-06-01T00:16:22;11.20;99.90
54260;DHT22;40172;53.022;7.012;2023-06-01T00:18:48;11.10;99.90
54260;DHT22;40172;53.022;7.012;2023-06-01T00:21:14;11.10;99.90
54260;DHT22;40172;53.022;7.012;2023-06-01T00:23:40;11.10;99.90
54260;DHT22;40172;53.022;7.012;2023-06-01T00:26:06;11.10;99.90
54260;DHT22;40172;53.022;7.012;2023-06-01T00:28:32;11.00;99.90
54260;DHT22;40172;53.022;7.012;2023-06-01T00:30:58;11.00;99.90
54260;DHT22;40172;53.022;7.012;2023-06-01T00:33:23;11.10;99.90
54260;DHT22;40172;53.022;7.012;2023-06-01T00:35:50;11.10;99.90
54260;DHT22;40172;53.022;7.012;2023-06-01T00:38:15;11.00;99.90
54260;DHT22;40172;53.022;7.012;2023-06-01T00:40:41;11.10;99.90
54260;DHT22;40172;53.022;7.012;2023-06-01T00:43:08;11.10;99.90
54260;DHT22;40172;53.022;7.012;2023-06-01T00:45:34;11.10;99.90
54260;DHT22;40172;53.022;7.012;2023-06-01T00:48:00;11.00;99.90
54260;DHT22;40172;53.022;7.012;2023-06-01T00:50:25;11.00;99.90
54260;DHT22;40172;53.022;7.012;2023-06-01T00:52:51;11.00;99.90
54260;DHT22;40172;53.022;7.012;2023-06-01T00:55:19;11.00;99.90
54260;DHT22;40172;53.022;7.012;2023-06-01T00:57:45;11.00;99.90
54260;DHT22;40172;53.022;7.012;2023-06-01T01:00:12;11.00;99.90
54260;DHT22;40172;53.022;7.012;2023-06-01T01:02:41;11.00;99.90
54260;DHT22;40172;53.022;7.012;2023-06-01T01:05:10;11.00;99.90
54260;DHT22;40172;53.022;7.012;2023-06-01T01:12:50;11.00;99.90
54260;DHT22;40172;53.022;7.012;2023-06-01T01:18:00;11.00;99.90
54260;DHT22;40172;53.022;7.012;2023-06-01T01:20:36;11.00;99.90
54260;DHT22;40172;53.022;7.012;2023-06-01T01:26:23;11.00;99.90
54260;DHT22;40172;53.022;7.012;2023-06-01T01:28:53;11.00;99.90
54260;DHT22;40172;53.022;7.012;2023-06-01T01:31:23;11.00;99.90
54260;DHT22;40172;53.022;7.012;2023-06-01T01:33:51;11.00;99.90
54260;DHT22;40172;53.022;7.012;2023-06-01T01:36:17;11.10;99.90
54260;DHT22;40172;53.022;7.012;2023-06-01T01:38:42;11.50;99.90
54260;DHT22;40172;53.022;7.012;2023-06-01T01:41:08;11.00;99.90
54260;DHT22;40172;53.022;7.012;2023-06-01T01:43:34;11.00;99.90
54260;DHT22;40172;53.022;7.012;2023-06-01T01:54:13;10.90;99.90
54260;DHT22;40172;53.022;7.012;2023-06-01T01:56:40;10.90;99.90
54260;DHT22;40172;53.022;7.012;2023-06-01T01:59:06;10.90;99.90
54260;DHT22;40172;53.022;7.012;2023-06-01T02:01:32;10.90;99.90
54260;DHT22;40172;53.022;7.012;2023-06-01T02:04:02;10.90;99.90
54260;DHT22;40172;53.022;7.012;2023-06-01T02:06:28;10.90;99.90
54260;DHT22;40172;53.022;7.012;2023-06-01T02:08:54;10.90;99.90
54260;DHT22;40172;53.022;7.012;2023-06-01T02:11:20;10.90;99.90
54260;DHT22;40172;53.022;7.012;2023-06-01T02:13:46;10.90;99.90
54260;DHT22;40172;53.022;7.012;2023-06-01T02:16:12;10.90;99.90
54260;DHT22;40172;53.022;7.012;2023-06-01T02:18:38;10.90;99.90
54260;DHT22;40172;53.022;7.012;2023-06-01T02:21:05;11.00;99.90
54260;DHT22;40172;53.022;7.012;2023-06-01T02:23:30;11.00;99.90
54260;DHT22;40172;53.022;7.012;2023-06-01T02:25:56;11.00;99.90
54260;DHT22;40172;53.022;7.012;2023-06-01T02:28:22;11.00;99.90
54260;DHT22;40172;53.022;7.012;2023-06-01T02:30:47;11.00;99.90
54260;DHT22;40172;53.022;7.012;2023-06-01T02:33:13;11.00;99.90
54260;DHT22;40172;53.022;7.012;2023-06-01T02:35:39;11.00;99.90
54260;DHT22;40172;53.022;7.012;2023-06-01T02:38:04;11.00;99.90
54260;DHT22;40172;53.022;7.012;2023-06-01T02:40:30;10.90;99.90
54260;DHT22;40172;53.022;7.012;2023-06-01T02:42:56;10.90;99.90
54260;DHT22;40172;53.022;7.012;2023-06-01T02:45:21;10.90;99.90
54260;DHT22;40172;53.022;7.012;2023-06-01T02:47:47;10.90;99.90
54260;DHT22;40172;53.022;7.012;2023-06-01T02:50:13;10.90;99.90
54260;DHT22;40172;53.022;7.012;2023-06-01T02:52:38;10.90;99.90
54260;DHT22;40172;53.022;7.012;2023-06-01T02:55:04;10.90;99.90
54260;DHT22;40172;53.022;7.012;2023-06-01T02:57:31;10.90;99.90
54260;DHT22;40172;53.022;7.012;2023-06-01T02:59:57;10.90;99.90
54260;DHT22;40172;53.022;7.012;2023-06-01T03:02:22;10.90;99.90
54260;DHT22;40172;53.022;7.012;2023-06-01T03:04:48;10.90;99.90
54260;DHT22;40172;53.022;7.012;2023-06-01T03:07:14;10.90;99.90
54260;DHT22;40172;53.022;7.012;2023-06-01T03:09:39;10.90;99.90
54260;DHT22;40172;53.022;7.012;2023-06-01T03:12:05;10.90;99.90
54260;DHT22;40172;53.022;7.012;2023-06-01T03:14:32;10.90;99.90
54260;DHT22;40172;53.022;7.012;2023-06-01T03:16:57;10.90;99.90
54260;DHT22;40172;53.022;7.012;2023-06-01T03:19:23;10.90;99.90
54260;DHT22;40172;53.022;7.012;2023-06-01T03:21:48;10.90;99.90
54260;DHT22;40172;53.022;7.012;2023-06-01T03:24:14;10.90;99.90
54260;DHT22;40172;53.022;7.012;2023-06-01T03:26:40;10.90;99.90
54260;DHT22;40172;53.022;7.012;2023-06-01T03:29:06;10.90;99.90
54260;DHT22;40172;53.022;7.012;2023-06-01T03:31:32;10.90;99.90
54260;DHT22;40172;53.022;7.012;2023-06-01T03:34:00;10.80;99.90
54260;DHT22;40172;53.022;7.012;2023-06-01T03:36:25;10.90;99.90
54260;DHT22;40172;53.022;7.012;2023-06-01T03:38:51;10.90;99.90
54260;DHT22;40172;53.022;7.012;2023-06-01T03:41:17;10.80;99.90
54260;DHT22;40172;53.022;7.012;2023-06-01T03:43:42;10.90;99.90
54260;DHT22;40172;53.022;7.012;2023-06-01T03:46:08;10.90;99.90
54260;DHT22;40172;53.022;7.012;2023-06-01T03:48:34;10.90;99.90
54260;DHT22;40172;53.022;7.012;2023-06-01T03:50:59;10.90;99.90
54260;DHT22;40172;53.022;7.012;2023-06-01T03:53:25;10.90;99.90
54260;DHT22;40172;53.022;7.012;2023-06-01T03:55:51;10.90;99.90
54260;DHT22;40172;53.022;7.012;2023-06-01T03:58:18;10.90;99.90
54260;DHT22;40172;53.022;7.012;2023-06-01T04:00:44;10.90;99.90
54260;DHT22;40172;53.022;7.012;2023-06-01T04:03:11;10.90;99.90
54260;DHT22;40172;53.022;7.012;2023-06-01T04:05:36;10.90;99.90
54260;DHT22;40172;53.022;7.012;2023-06-01T04:08:02;10.90;99.90
54260;DHT22;40172;53.022;7.012;2023-06-01T04:10:27;10.90;99.90
54260;DHT22;40172;53.022;7.012;2023-06-01T04:12:53;10.90;99.90
54260;DHT22;40172;53.022;7.012;2023-06-01T04:15:20;10.90;99.90
54260;DHT22;40172;53.022;7.012;2023-06-01T04:17:46;10.90;99.90
54260;DHT22;40172;53.022;7.012;2023-06-01T04:20:13;10.90;99.90
54260;DHT22;40172;53.022;7.012;2023-06-01T04:22:40;10.90;99.90
54260;DHT22;40172;53.022;7.012;2023-06-01T04:25:08;10.90;99.90
54260;DHT22;40172;53.022;7.012;2023-06-01T04:27:34;10.90;99.90
54260;DHT22;40172;53.022;7.012;2023-06-01T04:30:06;10.90;99.90
54260;DHT22;40172;53.022;7.012;2023-06-01T04:32:36;10.90;99.90
54260;DHT22;40172;53.022;7.012;2023-06-01T04:35:04;10.90;99.90
54260;DHT22;40172;53.022;7.012;2023-06-01T04:37:32;10.90;99.90
54260;DHT22;40172;53.022;7.012;2023-06-01T04:40:02;10.90;99.90
54260;DHT22;40172;53.022;7.012;2023-06-01T04:42:39;10.90;99.90
54260;DHT22;40172;53.022;7.012;2023-06-01T04:45:07;10.90;99.90
54260;DHT22;40172;53.022;7.012;2023-06-01T04:47:35;10.90;99.90
54260;DHT22;40172;53.022;7.012;2023-06-01T04:50:08;10.90;99.90
54260;DHT22;40172;53.022;7.012;2023-06-01T04:52:36;10.90;99.90
54260;DHT22;40172;53.022;7.012;2023-06-01T04:55:02;10.90;99.90
54260;DHT22;40172;53.022;7.012;2023-06-01T04:57:30;10.90;99.90
54260;DHT22;40172;53.022;7.012;2023-06-01T04:59:56;10.90;99.90
54260;DHT22;40172;53.022;7.012;2023-06-01T05:02:23;10.90;99.90
54260;DHT22;40172;53.022;7.012;2023-06-01T05:04:49;10.90;99.90
54260;DHT22;40172;53.022;7.012;2023-06-01T05:07:14;10.90;99.90
54260;DHT22;40172;53.022;7.012;2023-06-01T05:09:40;10.90;99.90
54260;DHT22;40172;53.022;7.012;2023-06-01T05:12:06;10.90;99.90
54260;DHT22;40172;53.022;7.012;2023-06-01T05:14:32;10.90;99.90
54260;DHT22;40172;53.022;7.012;2023-06-01T05:16:57;10.90;99.90
54260;DHT22;40172;53.022;7.012;2023-06-01T05:19:23;10.90;99.90
54260;DHT22;40172;53.022;7.012;2023-06-01T05:21:48;10.90;99.90
54260;DHT22;40172;53.022;7.012;2023-06-01T05:24:14;10.90;99.90
54260;DHT22;40172;53.022;7.012;2023-06-01T05:26:39;10.90;99.90
54260;DHT22;40172;53.022;7.012;2023-06-01T05:29:05;10.90;99.90
54260;DHT22;40172;53.022;7.012;2023-06-01T05:31:31;10.90;99.90
54260;DHT22;40172;53.022;7.012;2023-06-01T05:33:56;10.90;99.90
54260;DHT22;40172;53.022;7.012;2023-06-01T05:36:22;10.90;99.90
54260;DHT22;40172;53.022;7.012;2023-06-01T05:38:48;10.90;99.90
54260;DHT22;40172;53.022;7.012;2023-06-01T05:41:13;10.90;99.90
54260;DHT22;40172;53.022;7.012;2023-06-01T05:43:39;10.90;99.90
54260;DHT22;40172;53.022;7.012;2023-06-01T05:46:05;10.90;99.90
54260;DHT22;40172;53.022;7.012;2023-06-01T05:48:31;10.90;99.90
54260;DHT22;40172;53.022;7.012;2023-06-01T05:50:57;10.90;99.90
54260;DHT22;40172;53.022;7.012;2023-06-01T05:53:23;10.90;99.90
54260;DHT22;40172;53.022;7.012;2023-06-01T05:55:51;10.90;99.90
54260;DHT22;40172;53.022;7.012;2023-06-01T05:58:17;11.00;99.90
54260;DHT22;40172;53.022;7.012;2023-06-01T06:00:42;11.00;99.90
54260;DHT22;40172;53.022;7.012;2023-06-01T06:03:08;11.00;99.90
54260;DHT22;40172;53.022;7.012;2023-06-01T06:05:34;11.40;99.90
54260;DHT22;40172;53.022;7.012;2023-06-01T06:07:59;11.10;99.90
54260;DHT22;40172;53.022;7.012;2023-06-01T06:10:26;11.10;99.90
54260;DHT22;40172;53.022;7.012;2023-06-01T06:12:52;11.20;99.90
54260;DHT22;40172;53.022;7.012;2023-06-01T06:15:17;11.30;99.90
54260;DHT22;40172;53.022;7.012;2023-06-01T06:17:43;11.30;99.90
54260;DHT22;40172;53.022;7.012;2023-06-01T06:20:09;11.30;99.90
54260;DHT22;40172;53.022;7.012;2023-06-01T06:22:36;11.40;99.90
54260;DHT22;40172;53.022;7.012;2023-06-01T06:25:02;11.50;99.90
54260;DHT22;40172;53.022;7.012;2023-06-01T06:27:27;11.50;99.90
54260;DHT22;40172;53.022;7.012;2023-06-01T06:29:53;11.60;99.90
54260;DHT22;40172;53.022;7.012;2023-06-01T06:32:19;11.60;99.90
54260;DHT22;40172;53.022;7.012;2023-06-01T06:34:47;11.60;99.90
54260;DHT22;40172;53.022;7.012;2023-06-01T06:37:13;13.40;99.90
54260;DHT22;40172;53.022;7.012;2023-06-01T06:39:38;11.70;99.90
54260;DHT22;40172;53.022;7.012;2023-06-01T06:42:07;11.80;99.90
54260;DHT22;40172;53.022;7.012;2023-06-01T06:44:33;11.80;99.90
54260;DHT22;40172;53.022;7.012;2023-06-01T06:46:59;11.90;99.90
54260;DHT22;40172;53.022;7.012;2023-06-01T06:49:26;11.90;99.90
54260;DHT22;40172;53.022;7.012;2023-06-01T06:51:51;11.90;99.90
54260;DHT22;40172;53.022;7.012;2023-06-01T06:54:17;11.90;99.90
54260;DHT22;40172;53.022;7.012;2023-06-01T06:56:42;11.90;99.90
54260;DHT22;40172;53.022;7.012;2023-06-01T06:59:09;11.90;99.90
54260;DHT22;40172;53.022;7.012;2023-06-01T07:01:35;11.90;99.90
54260;DHT22;40172;53.022;7.012;2023-06-01T07:04:04;11.90;99.90
54260;DHT22;40172;53.022;7.012;2023-06-01T07:06:31;11.90;99.90
54260;DHT22;40172;53.022;7.012;2023-06-01T07:08:58;11.90;99.90
54260;DHT22;40172;53.022;7.012;2023-06-01T07:11:24;12.00;99.90
54260;DHT22;40172;53.022;7.012;2023-06-01T07:13:51;12.00;99.90
54260;DHT22;40172;53.022;7.012;2023-06-01T07:16:17;12.10;99.90
54260;DHT22;40172;53.022;7.012;2023-06-01T07:18:42;12.10;99.90
54260;DHT22;40172;53.022;7.012;2023-06-01T07:21:08;12.00;99.90
54260;DHT22;40172;53.022;7.012;2023-06-01T07:23:33;12.00;99.90
54260;DHT22;40172;53.022;7.012;2023-06-01T07:25:59;12.00;99.90
54260;DHT22;40172;53.022;7.012;2023-06-01T07:28:26;11.90;99.90
54260;DHT22;40172;53.022;7.012;2023-06-01T07:30:52;12.00;99.90
54260;DHT22;40172;53.022;7.012;2023-06-01T07:33:18;11.90;99.90
54260;DHT22;40172;53.022;7.012;2023-06-01T07:35:44;11.90;99.90
54260;DHT22;40172;53.022;7.012;2023-06-01T07:38:10;11.90;99.90
54260;DHT22;40172;53.022;7.012;2023-06-01T07:40:36;11.90;99.90
54260;DHT22;40172;53.022;7.012;2023-06-01T07:43:02;11.90;99.90
54260;DHT22;40172;53.022;7.012;2023-06-01T07:45:28;11.90;99.90
54260;DHT22;40172;53.022;7.012;2023-06-01T07:47:53;11.90;99.90
54260;DHT22;40172;53.022;7.012;2023-06-01T07:50:19;11.90;99.90
54260;DHT22;40172;53.022;7.012;2023-06-01T07:52:45;11.90;99.90
54260;DHT22;40172;53.022;7.012;2023-06-01T07:55:10;11.90;99.90
54260;DHT22;40172;53.022;7.012;2023-06-01T07:57:36;11.90;99.90
54260;DHT22;40172;53.022;7.012;2023-06-01T08:00:03;12.00;99.90
54260;DHT22;40172;53.022;7.012;2023-06-01T08:02:33;12.00;99.90
54260;DHT22;40172;53.022;7.012;2023-06-01T08:04:58;12.10;99.90
54260;DHT22;40172;53.022;7.012;2023-06-01T08:07:25;12.10;99.90
54260;DHT22;40172;53.022;7.012;2023-06-01T08:09:53;12.10;99.90
54260;DHT22;40172;53.022;7.012;2023-06-01T08:12:19;12.10;99.90
54260;DHT22;40172;53.022;7.012;2023-06-01T08:14:44;12.10;99.90
54260;DHT22;40172;53.022;7.012;2023-06-01T08:17:10;12.10;99.90
54260;DHT22;40172;53.022;7.012;2023-06-01T08:19:37;12.00;99.90
54260;DHT22;40172;53.022;7.012;2023-06-01T08:22:02;12.30;99.90
54260;DHT22;40172;53.022;7.012;2023-06-01T08:24:31;11.80;99.90
54260;DHT22;40172;53.022;7.012;2023-06-01T08:26:57;11.80;99.90
54260;DHT22;40172;53.022;7.012;2023-06-01T08:29:23;11.80;99.90
54260;DHT22;40172;53.022;7.012;2023-06-01T08:31:49;11.80;99.90
54260;DHT22;40172;53.022;7.012;2023-06-01T08:34:14;11.80;99.90
54260;DHT22;40172;53.022;7.012;2023-06-01T08:36:40;11.90;99.90
54260;DHT22;40172;53.022;7.012;2023-06-01T08:39:22;11.90;99.90
54260;DHT22;40172;53.022;7.012;2023-06-01T08:42:08;11.90;99.90
54260;DHT22;40172;53.022;7.012;2023-06-01T08:44:41;11.90;99.90
54260;DHT22;40172;53.022;7.012;2023-06-01T08:47:07;11.80;99.90
54260;DHT22;40172;53.022;7.012;2023-06-01T08:49:34;11.90;99.90
54260;DHT22;40172;53.022;7.012;2023-06-01T08:52:06;11.90;99.90
54260;DHT22;40172;53.022;7.012;2023-06-01T08:54:32;12.00;99.90
54260;DHT22;40172;53.022;7.012;2023-06-01T08:57:05;12.00;99.90
54260;DHT22;40172;53.022;7.012;2023-06-01T08:59:34;12.10;99.90
54260;DHT22;40172;53.022;7.012;2023-06-01T09:01:59;12.10;99.90
54260;DHT22;40172;53.022;7.012;2023-06-01T09:04:26;12.10;99.90
54260;DHT22;40172;53.022;7.012;2023-06-01T09:06:52;12.20;99.90
54260;DHT22;40172;53.022;7.012;2023-06-01T09:09:18;12.20;99.90
54260;DHT22;40172;53.022;7.012;2023-06-01T09:11:44;12.20;99.90
54260;DHT22;40172;53.022;7.012;2023-06-01T09:14:24;12.10;99.90
54260;DHT22;40172;53.022;7.012;2023-06-01T09:16:50;12.10;99.90
54260;DHT22;40172;53.022;7.012;2023-06-01T09:19:17;12.10;99.90
54260;DHT22;40172;53.022;7.012;2023-06-01T09:21:59;12.20;99.90
54260;DHT22;40172;53.022;7.012;2023-06-01T09:24:26;12.20;99.90
54260;DHT22;40172;53.022;7.012;2023-06-01T09:26:58;12.20;99.90
54260;DHT22;40172;53.022;7.012;2023-06-01T09:29:25;12.30;99.90
54260;DHT22;40172;53.022;7.012;2023-06-01T09:31:52;12.40;99.90
54260;DHT22;40172;53.022;7.012;2023-06-01T09:34:19;12.30;99.90
54260;DHT22;40172;53.022;7.012;2023-06-01T09:36:55;12.30;99.90
54260;DHT22;40172;53.022;7.012;2023-06-01T09:39:22;12.20;99.90
54260;DHT22;40172;53.022;7.012;2023-06-01T09:41:55;12.30;99.90
54260;DHT22;40172;53.022;7.012;2023-06-01T09:44:31;12.30;99.90
54260;DHT22;40172;53.022;7.012;2023-06-01T09:47:05;12.40;99.90
54260;DHT22;40172;53.022;7.012;2023-06-01T09:49:32;12.50;99.90
54260;DHT22;40172;53.022;7.012;2023-06-01T09:54:34;12.60;99.90
54260;DHT22;40172;53.022;7.012;2023-06-01T09:57:02;12.60;99.90
54260;DHT22;40172;53.022;7.012;2023-06-01T09:59:29;12.70;99.90
54260;DHT22;40172;53.022;7.012;2023-06-01T10:01:58;12.70;99.90
54260;DHT22;40172;53.022;7.012;2023-06-01T10:04:26;12.70;99.90
54260;DHT22;40172;53.022;7.012;2023-06-01T10:06:53;12.70;99.90
54260;DHT22;40172;53.022;7.012;2023-06-01T10:09:21;12.80;99.90
54260;DHT22;40172;53.022;7.012;2023-06-01T10:11:48;12.90;99.90
54260;DHT22;40172;53.022;7.012;2023-06-01T10:14:15;13.00;99.90
54260;DHT22;40172;53.022;7.012;2023-06-01T10:16:42;13.20;99.90
54260;DHT22;40172;53.022;7.012;2023-06-01T10:19:09;13.30;99.90
54260;DHT22;40172;53.022;7.012;2023-06-01T10:21:35;13.30;99.90
54260;DHT22;40172;53.022;7.012;2023-06-01T10:24:02;13.40;99.90
54260;DHT22;40172;53.022;7.012;2023-06-01T10:26:29;13.40;99.90
54260;DHT22;40172;53.022;7.012;2023-06-01T10:28:56;13.40;99.90
54260;DHT22;40172;53.022;7.012;2023-06-01T10:31:40;13.40;99.90
54260;DHT22;40172;53.022;7.012;2023-06-01T10:34:08;13.40;99.90
54260;DHT22;40172;53.022;7.012;2023-06-01T10:39:31;13.50;99.90
54260;DHT22;40172;53.022;7.012;2023-06-01T10:42:43;13.50;99.90
54260;DHT22;40172;53.022;7.012;2023-06-01T10:44:48;13.50;99.90
54260;DHT22;40172;53.022;7.012;2023-06-01T10:52:33;13.70;99.90
54260;DHT22;40172;53.022;7.012;2023-06-01T10:57:37;13.70;99.90
54260;DHT22;40172;53.022;7.012;2023-06-01T11:00:25;13.70;99.90
54260;DHT22;40172;53.022;7.012;2023-06-01T11:21:20;13.80;99.90
54260;DHT22;40172;53.022;7.012;2023-06-01T11:23:47;14.10;99.90
54260;DHT22;40172;53.022;7.012;2023-06-01T11:26:21;14.00;99.90
54260;DHT22;40172;53.022;7.012;2023-06-01T11:28:48;13.90;99.90
54260;DHT22;40172;53.022;7.012;2023-06-01T11:31:18;13.80;99.90
54260;DHT22;40172;53.022;7.012;2023-06-01T11:33:52;13.80;99.90
54260;DHT22;40172;53.022;7.012;2023-06-01T11:36:20;13.80;99.90
54260;DHT22;40172;53.022;7.012;2023-06-01T11:38:49;13.80;99.90
54260;DHT22;40172;53.022;7.012;2023-06-01T11:41:15;13.80;99.90
54260;DHT22;40172;53.022;7.012;2023-06-01T11:43:40;13.80;99.90
54260;DHT22;40172;53.022;7.012;2023-06-01T11:46:08;13.80;99.90
54260;DHT22;40172;53.022;7.012;2023-06-01T11:48:35;13.80;99.90
54260;DHT22;40172;53.022;7.012;2023-06-01T11:51:02;13.70;99.90
54260;DHT22;40172;53.022;7.012;2023-06-01T11:53:29;13.80;99.90
54260;DHT22;40172;53.022;7.012;2023-06-01T11:55:59;13.80;99.90
54260;DHT22;40172;53.022;7.012;2023-06-01T11:58:29;14.00;99.90
54260;DHT22;40172;53.022;7.012;2023-06-01T12:00:56;14.10;99.90
54260;DHT22;40172;53.022;7.012;2023-06-01T12:03:22;14.20;99.90
54260;DHT22;40172;53.022;7.012;2023-06-01T12:05:51;14.20;99.90
54260;DHT22;40172;53.022;7.012;2023-06-01T12:08:19;14.30;99.90
54260;DHT22;40172;53.022;7.012;2023-06-01T12:10:46;14.40;99.90
54260;DHT22;40172;53.022;7.012;2023-06-01T12:13:13;14.40;99.90
54260;DHT22;40172;53.022;7.012;2023-06-01T12:15:39;14.40;99.90
54260;DHT22;40172;53.022;7.012;2023-06-01T12:18:04;14.40;99.90
54260;DHT22;40172;53.022;7.012;2023-06-01T12:20:41;14.40;99.90
54260;DHT22;40172;53.022;7.012;2023-06-01T12:23:17;14.50;99.90
54260;DHT22;40172;53.022;7.012;2023-06-01T12:28:18;14.40;99.90
54260;DHT22;40172;53.022;7.012;2023-06-01T12:30:44;14.30;99.90
54260;DHT22;40172;53.022;7.012;2023-06-01T12:33:33;14.30;99.90
54260;DHT22;40172;53.022;7.012;2023-06-01T12:35:59;14.20;99.90
54260;DHT22;40172;53.022;7.012;2023-06-01T12:38:25;14.20;99.90
54260;DHT22;40172;53.022;7.012;2023-06-01T12:41:09;14.20;99.90
54260;DHT22;40172;53.022;7.012;2023-06-01T12:43:43;14.20;99.90
54260;DHT22;40172;53.022;7.012;2023-06-01T12:46:26;14.20;99.90
54260;DHT22;40172;53.022;7.012;2023-06-01T12:48:54;14.30;99.90
54260;DHT22;40172;53.022;7.012;2023-06-01T12:51:20;14.30;99.90
54260;DHT22;40172;53.022;7.012;2023-06-01T12:53:47;14.40;99.90
54260;DHT22;40172;53.022;7.012;2023-06-01T12:56:13;14.30;99.90
54260;DHT22;40172;53.022;7.012;2023-06-01T12:58:39;14.30;99.90
54260;DHT22;40172;53.022;7.012;2023-06-01T13:01:05;14.30;99.90
54260;DHT22;40172;53.022;7.012;2023-06-01T13:03:32;14.40;99.90
54260;DHT22;40172;53.022;7.012;2023-06-01T13:05:58;14.30;99.90
54260;DHT22;40172;53.022;7.012;2023-06-01T13:08:23;14.30;99.90
54260;DHT22;40172;53.022;7.012;2023-06-01T13:10:49;14.20;99.90
54260;DHT22;40172;53.022;7.012;2023-06-01T13:13:15;14.00;99.90
54260;DHT22;40172;53.022;7.012;2023-06-01T13:15:42;13.90;99.90
54260;DHT22;40172;53.022;7.012;2023-06-01T13:18:08;13.70;99.90
54260;DHT22;40172;53.022;7.012;2023-06-01T13:20:35;13.70;99.90
54260;DHT22;40172;53.022;7.012;2023-06-01T13:23:01;13.60;99.90
54260;DHT22;40172;53.022;7.012;2023-06-01T13:25:27;13.50;99.90
54260;DHT22;40172;53.022;7.012;2023-06-01T13:27:52;13.40;99.90
54260;DHT22;40172;53.022;7.012;2023-06-01T13:30:19;13.40;99.90
54260;DHT22;40172;53.022;7.012;2023-06-01T13:32:44;13.40;99.90
54260;DHT22;40172;53.022;7.012;2023-06-01T13:35:10;13.40;99.90
54260;DHT22;40172;53.022;7.012;2023-06-01T13:37:37;13.40;99.90
54260;DHT22;40172;53.022;7.012;2023-06-01T13:40:03;13.40;99.90
54260;DHT22;40172;53.022;7.012;2023-06-01T13:42:31;13.40;99.90
54260;DHT22;40172;53.022;7.012;2023-06-01T13:45:00;13.40;99.90
54260;DHT22;40172;53.022;7.012;2023-06-01T13:47:26;13.50;99.90
54260;DHT22;40172;53.022;7.012;2023-06-01T13:49:52;13.50;99.90
54260;DHT22;40172;53.022;7.012;2023-06-01T13:52:18;13.50;99.90
54260;DHT22;40172;53.022;7.012;2023-06-01T13:54:44;13.50;99.90
54260;DHT22;40172;53.022;7.012;2023-06-01T13:57:10;13.50;99.90
54260;DHT22;40172;53.022;7.012;2023-06-01T13:59:35;13.50;99.90
54260;DHT22;40172;53.022;7.012;2023-06-01T14:02:04;13.50;99.90
54260;DHT22;40172;53.022;7.012;2023-06-01T14:04:31;13.50;99.90
54260;DHT22;40172;53.022;7.012;2023-06-01T14:06:56;13.50;99.90
54260;DHT22;40172;53.022;7.012;2023-06-01T14:09:22;13.60;99.90
54260;DHT22;40172;53.022;7.012;2023-06-01T14:11:48;13.60;99.90
54260;DHT22;40172;53.022;7.012;2023-06-01T14:14:15;13.60;99.90
54260;DHT22;40172;53.022;7.012;2023-06-01T14:16:40;13.60;99.90
54260;DHT22;40172;53.022;7.012;2023-06-01T14:19:06;13.60;99.90
54260;DHT22;40172;53.022;7.012;2023-06-01T14:21:32;13.70;99.90
54260;DHT22;40172;53.022;7.012;2023-06-01T14:24:00;13.80;99.90
54260;DHT22;40172;53.022;7.012;2023-06-01T14:26:25;13.80;99.90
54260;DHT22;40172;53.022;7.012;2023-06-01T14:28:51;13.80;99.90
54260;DHT22;40172;53.022;7.012;2023-06-01T14:31:16;13.80;99.90
54260;DHT22;40172;53.022;7.012;2023-06-01T14:33:42;13.80;99.90
54260;DHT22;40172;53.022;7.012;2023-06-01T14:36:08;13.70;99.90
54260;DHT22;40172;53.022;7.012;2023-06-01T14:38:33;13.60;99.90
54260;DHT22;40172;53.022;7.012;2023-06-01T14:40:59;13.60;99.90
54260;DHT22;40172;53.022;7.012;2023-06-01T14:43:25;13.60;99.90
54260;DHT22;40172;53.022;7.012;2023-06-01T14:45:51;13.50;99.90
54260;DHT22;40172;53.022;7.012;2023-06-01T14:48:16;13.40;99.90
54260;DHT22;40172;53.022;7.012;2023-06-01T14:50:42;13.40;99.90
54260;DHT22;40172;53.022;7.012;2023-06-01T14:53:08;13.30;99.90
54260;DHT22;40172;53.022;7.012;2023-06-01T14:55:33;13.20;99.90
54260;DHT22;40172;53.022;7.012;2023-06-01T14:57:59;13.20;99.90
54260;DHT22;40172;53.022;7.012;2023-06-01T15:00:25;13.20;99.90
54260;DHT22;40172;53.022;7.012;2023-06-01T15:02:50;13.20;99.90
54260;DHT22;40172;53.022;7.012;2023-06-01T15:05:16;13.20;99.90
54260;DHT22;40172;53.022;7.012;2023-06-01T15:07:42;13.30;99.90
54260;DHT22;40172;53.022;7.012;2023-06-01T15:10:08;13.30;99.90
54260;DHT22;40172;53.022;7.012;2023-06-01T15:12:35;13.40;99.90
54260;DHT22;40172;53.022;7.012;2023-06-01T15:15:01;13.40;99.90
54260;DHT22;40172;53.022;7.012;2023-06-01T15:17:27;13.40;99.90
54260;DHT22;40172;53.022;7.012;2023-06-01T15:19:52;13.50;99.90
54260;DHT22;40172;53.022;7.012;2023-06-01T15:22:18;13.50;99.90
54260;DHT22;40172;53.022;7.012;2023-06-01T15:24:43;13.50;99.90
54260;DHT22;40172;53.022;7.012;2023-06-01T15:27:09;13.40;99.90
54260;DHT22;40172;53.022;7.012;2023-06-01T15:29:35;13.40;99.90
54260;DHT22;40172;53.022;7.012;2023-06-01T15:32:01;13.50;99.90
54260;DHT22;40172;53.022;7.012;2023-06-01T15:34:27;13.50;99.90
54260;DHT22;40172;53.022;7.012;2023-06-01T15:36:52;13.50;99.90
54260;DHT22;40172;53.022;7.012;2023-06-01T15:39:18;13.50;99.90
54260;DHT22;40172;53.022;7.012;2023-06-01T15:41:44;13.50;99.90
54260;DHT22;40172;53.022;7.012;2023-06-01T15:44:09;13.60;99.90
54260;DHT22;40172;53.022;7.012;2023-06-01T15:46:35;13.70;99.90
54260;DHT22;40172;53.022;7.012;2023-06-01T15:49:00;13.60;99.90
54260;DHT22;40172;53.022;7.012;2023-06-01T15:51:26;13.70;99.90
54260;DHT22;40172;53.022;7.012;2023-06-01T15:53:53;13.60;99.90
54260;DHT22;40172;53.022;7.012;2023-06-01T15:56:19;13.50;99.90
54260;DHT22;40172;53.022;7.012;2023-06-01T15:58:45;13.50;99.90
54260;DHT22;40172;53.022;7.012;2023-06-01T16:01:17;13.60;99.90
54260;DHT22;40172;53.022;7.012;2023-06-01T16:03:44;13.60;99.90
54260;DHT22;40172;53.022;7.012;2023-06-01T16:06:10;13.60;99.90
54260;DHT22;40172;53.022;7.012;2023-06-01T16:08:36;13.60;99.90
54260;DHT22;40172;53.022;7.012;2023-06-01T16:11:02;13.50;99.90
54260;DHT22;40172;53.022;7.012;2023-06-01T16:13:28;13.40;99.90
54260;DHT22;40172;53.022;7.012;2023-06-01T16:15:53;13.30;99.90
54260;DHT22;40172;53.022;7.012;2023-06-01T16:18:19;13.20;99.90
54260;DHT22;40172;53.022;7.012;2023-06-01T16:20:45;13.20;99.90
54260;DHT22;40172;53.022;7.012;2023-06-01T16:23:12;13.20;99.90